Time;durP1;ratioP1;P1;durP2;ratioP2;P2;SDS_P1;SDS_P2;PMS_P1;PMS_P2;Temp;Humidity;BMP_temperature;BMP_pressure;BME280_temperature;BME280_humidity;BME280_pressure;Samples;Min_cycle;Max_cycle;Signal;HPM_P1;HPM_P2
2022/04/26 03:37:48;;;;;;;24.70;17.67;;;;;;;1.87;94.21;101649.88;4935725;29;20459;-46
2022/04/26 03:40:16;;;;;;;20.57;18.27;;;;;;;1.89;93.65;101652.38;4937305;29;20499;-46
2022/04/26 03:42:43;;;;;;;23.03;18.80;;;;;;;1.91;93.69;101650.47;4932476;28;20482;-44
2022/04/26 03:45:11;;;;;;;22.03;18.70;;;;;;;1.90;93.89;101654.06;4936998;29;20443;-46
2022/04/26 03:47:39;;;;;;;22.27;18.83;;;;;;;1.90;93.92;101654.91;4934709;29;20444;-48
2022/04/26 03:50:08;;;;;;;26.93;17.17;;;;;;;1.90;93.54;101654.06;4935896;29;20481;-46
2022/04/26 03:52:36;;;;;;;20.33;18.13;;;;;;;1.91;93.62;101661.81;4936854;28;20475;-46
2022/04/26 03:55:04;;;;;;;19.73;17.30;;;;;;;1.92;93.45;101650.34;4947155;29;20427;-44
2022/04/26 03:57:31;;;;;;;21.00;17.47;;;;;;;1.94;93.88;101651.03;4951371;29;20446;-45
2022/04/26 03:59:59;;;;;;;24.87;19.23;;;;;;;1.98;93.99;101651.66;4946907;29;20424;-43
2022/04/26 04:02:27;;;;;;;20.20;16.93;;;;;;;2.01;93.82;101646.16;4954135;28;20471;-44
2022/04/26 04:04:55;;;;;;;18.73;16.93;;;;;;;2.07;93.91;101651.78;4954872;29;20954;-44
2022/04/26 04:07:23;;;;;;;18.37;16.33;;;;;;;2.13;94.14;101650.47;4955247;29;20957;-45
2022/04/26 04:09:52;;;;;;;19.10;17.03;;;;;;;2.17;94.81;101652.75;4954865;29;20432;-45
2022/04/26 04:12:19;;;;;;;23.50;18.30;;;;;;;2.24;94.03;101659.19;4953988;28;20472;-43
2022/04/26 04:14:47;;;;;;;21.23;18.20;;;;;;;2.30;94.57;101654.41;4954666;29;20454;-43
2022/04/26 04:17:15;;;;;;;21.63;18.00;;;;;;;2.35;94.33;101654.88;4954852;29;20435;-45
2022/04/26 04:19:42;;;;;;;22.27;17.73;;;;;;;2.40;94.18;101652.72;4954825;29;20941;-48
2022/04/26 04:22:10;;;;;;;22.60;17.13;;;;;;;2.43;94.25;101658.56;4953914;28;20476;-45
2022/04/26 04:24:39;;;;;;;20.60;18.53;;;;;;;2.49;93.89;101660.72;4954573;29;20439;-46
2022/04/26 04:27:08;;;;;;;18.63;16.73;;;;;;;2.54;93.40;101657.72;4954478;29;20968;-45
2022/04/26 04:29:42;;;;;;;21.03;17.73;;;;;;;2.83;94.85;101661.50;4954345;29;20435;-42
2022/04/26 04:32:09;;;;;;;17.90;16.10;;;;;;;3.18;95.19;101664.72;4953628;28;20468;-43
2022/04/26 04:34:37;;;;;;;19.37;16.47;;;;;;;3.62;95.65;101663.63;4954439;29;20436;-48
2022/04/26 04:37:05;;;;;;;21.33;17.80;;;;;;;4.24;96.01;101660.88;4954307;29;20956;-47
2022/04/26 04:39:33;;;;;;;23.40;19.10;;;;;;;4.86;95.65;101657.16;4954372;29;20435;-46
2022/04/26 04:42:04;;;;;;;21.03;18.67;;;;;;;5.23;92.22;101668.69;4953114;28;20555;-45
2022/04/26 04:44:31;;;;;;;22.80;17.70;;;;;;;5.52;89.61;101658.13;4954297;29;20436;-47
2022/04/26 04:47:00;;;;;;;17.03;15.27;;;;;;;5.93;88.22;101665.72;4954325;29;20446;-44
2022/04/26 04:49:28;;;;;;;23.10;16.47;;;;;;;6.32;85.24;101662.91;4954276;29;20490;-48
2022/04/26 04:51:55;;;;;;;17.87;16.07;;;;;;;6.90;84.57;101674.84;4953232;28;20496;-45
2022/04/26 04:54:23;;;;;;;21.60;17.73;;;;;;;7.66;80.93;101669.88;4953959;29;20463;-51
2022/04/26 04:56:51;;;;;;;16.87;15.17;;;;;;;8.57;77.38;101674.53;4954240;29;20450;-45
2022/04/26 04:59:23;;;;;;;18.07;16.17;;;;;;;9.57;77.34;101681.53;4954192;29;20436;-47
2022/04/26 05:01:50;;;;;;;13.10;11.90;;;;;;;10.28;68.45;101678.91;4953365;28;20491;-47
2022/04/26 05:04:18;;;;;;;14.23;13.03;;;;;;;10.55;64.39;101670.50;4954002;29;20510;-44
2022/04/26 05:06:46;;;;;;;12.80;11.47;;;;;;;11.37;62.16;101680.50;4953851;29;20446;-48
2022/04/26 05:09:14;;;;;;;13.70;12.50;;;;;;;11.96;58.29;101678.81;4953842;29;20443;-50
2022/04/26 05:11:41;;;;;;;13.77;12.37;;;;;;;12.66;56.17;101681.00;4953321;28;20471;-46
2022/04/26 05:14:09;;;;;;;13.97;12.67;;;;;;;13.07;56.04;101683.94;4953973;29;20736;-46
2022/04/26 05:16:38;;;;;;;12.80;11.80;;;;;;;13.24;51.92;101686.22;4953698;29;20942;-46
2022/04/26 05:19:05;;;;;;;11.90;11.00;;;;;;;13.52;52.98;101683.59;4953798;29;20468;-45
2022/04/26 05:21:34;;;;;;;11.87;10.97;;;;;;;13.37;50.47;101685.53;4952943;28;20507;-45
2022/04/26 05:26:46;;;;;;;11.27;10.47;;;;;;;13.99;51.60;101685.63;4953869;29;20446;-46
2022/04/26 05:29:14;;;;;;;11.50;10.60;;;;;;;14.40;50.36;101688.38;4953721;29;20436;-49
2022/04/26 05:31:43;;;;;;;11.13;10.43;;;;;;;14.57;48.02;101695.06;4952967;28;20483;-43
2022/04/26 05:34:10;;;;;;;12.33;11.33;;;;;;;14.49;47.95;101692.53;4953599;29;20530;-45
2022/04/26 05:36:38;;;;;;;11.20;10.07;;;;;;;14.86;48.30;101697.47;4953832;29;20440;-43
2022/04/26 05:39:06;;;;;;;12.20;11.00;;;;;;;15.19;46.65;101696.72;4953746;29;20436;-44
2022/04/26 05:41:33;;;;;;;11.20;10.17;;;;;;;15.18;46.08;101695.06;4953018;28;20460;-48
2022/04/26 05:44:01;;;;;;;13.50;12.20;;;;;;;15.28;44.71;101696.34;4953515;29;20435;-45
2022/04/26 05:46:29;;;;;;;13.10;11.97;;;;;;;15.92;48.36;101693.88;4953326;29;20444;-50
2022/04/26 05:48:58;;;;;;;11.43;10.43;;;;;;;15.87;44.14;101693.69;4953812;29;20479;-44
2022/04/26 05:51:25;;;;;;;13.33;12.00;;;;;;;15.80;43.62;101694.75;4952644;28;20483;-47
2022/04/26 05:53:53;;;;;;;11.07;10.13;;;;;;;16.00;45.26;101699.06;4956460;29;20937;-47
2022/04/26 05:56:20;;;;;;;12.63;11.63;;;;;;;15.94;45.55;101699.91;4957195;29;20447;-46
2022/04/26 05:58:48;;;;;;;11.80;10.80;;;;;;;16.96;47.36;101694.66;4957200;29;20441;-43
2022/04/26 06:01:15;;;;;;;11.10;10.20;;;;;;;17.27;45.34;101690.31;4956299;28;20470;-49
2022/04/26 06:03:43;;;;;;;11.23;10.37;;;;;;;17.66;43.49;101690.88;4957300;29;20509;-47
2022/04/26 06:06:12;;;;;;;10.47;9.50;;;;;;;17.90;43.91;101691.91;4957178;29;20530;-45
2022/04/26 06:08:40;;;;;;;11.60;10.80;;;;;;;18.31;40.02;101693.19;4956897;29;20442;-50
2022/04/26 06:11:12;;;;;;;11.53;10.17;;;;;;;18.35;39.15;101699.75;4956299;28;20486;-47
2022/04/26 06:13:40;;;;;;;9.77;8.97;;;;;;;18.79;40.88;101694.06;4956802;29;20435;-47
2022/04/26 06:16:08;;;;;;;12.57;11.37;;;;;;;18.99;41.76;101701.94;4957139;28;20493;-48
2022/04/26 06:18:35;;;;;;;10.00;9.07;;;;;;;19.12;38.64;101693.63;4956931;29;20463;-47
2022/04/26 06:21:03;;;;;;;11.03;9.70;;;;;;;18.76;41.41;101695.34;4956186;28;20463;-43
2022/04/26 06:23:32;;;;;;;11.07;9.23;;;;;;;18.89;40.66;101698.94;4956808;29;20439;-47
2022/04/26 06:25:59;;;;;;;9.80;9.00;;;;;;;18.89;40.06;101696.22;4956661;29;20446;-49
2022/04/26 06:28:27;;;;;;;10.10;9.40;;;;;;;18.54;38.87;101693.34;4956915;28;20801;-44
2022/04/26 06:30:56;;;;;;;10.37;9.50;;;;;;;18.66;40.30;101699.66;4956188;28;20458;-48
2022/04/26 06:33:24;;;;;;;10.00;8.83;;;;;;;18.83;36.26;101695.28;4956827;29;20479;-50
2022/04/26 06:35:52;;;;;;;10.27;9.40;;;;;;;18.71;38.14;101703.31;4956605;29;20462;-45
2022/04/26 06:38:22;;;;;;;11.90;11.00;;;;;;;19.00;39.15;101696.28;4956460;29;20441;-44
2022/04/26 06:40:51;;;;;;;13.23;11.40;;;;;;;19.43;40.74;101698.00;4955501;28;20455;-47
2022/04/26 06:43:19;;;;;;;10.83;10.00;;;;;;;20.07;40.96;101700.63;4956704;29;20478;-47
2022/04/26 06:45:47;;;;;;;10.03;9.33;;;;;;;20.67;37.99;101697.66;4955623;29;20441;-46
2022/04/26 06:48:17;;;;;;;9.50;8.70;;;;;;;21.18;37.39;101691.34;4948393;29;20434;-46
2022/04/26 06:50:46;;;;;;;11.23;10.40;;;;;;;21.37;38.47;101687.34;4955341;28;20467;-52
2022/04/26 06:53:13;;;;;;;14.10;11.40;;;;;;;21.44;35.10;101691.53;4956609;29;20479;-45
2022/04/26 06:55:41;;;;;;;10.83;9.57;;;;;;;21.66;36.36;101693.53;4956283;29;20442;-42
2022/04/26 06:58:10;;;;;;;9.50;8.90;;;;;;;21.63;36.82;101696.72;4956251;29;20442;-47
2022/04/26 07:00:38;;;;;;;10.77;9.97;;;;;;;21.30;35.14;101690.22;4955485;28;20462;-50
2022/04/26 07:03:06;;;;;;;11.57;10.57;;;;;;;21.12;36.97;101701.28;4954963;28;20835;-51
2022/04/26 07:05:34;;;;;;;11.43;10.33;;;;;;;21.06;34.18;101704.91;4955865;29;20439;-46
2022/04/26 07:08:02;;;;;;;11.33;10.47;;;;;;;21.22;36.10;101703.34;4956323;29;20538;-43
2022/04/26 07:10:29;;;;;;;10.90;9.90;;;;;;;21.30;35.03;101700.22;4955757;29;20435;-41
2022/04/26 07:12:57;;;;;;;9.73;9.03;;;;;;;21.21;36.75;101712.53;4955372;28;20479;-46
2022/04/26 07:15:26;;;;;;;10.33;9.63;;;;;;;21.27;35.22;101720.53;4955963;29;20435;-44
2022/04/26 07:17:54;;;;;;;11.73;10.23;;;;;;;21.25;36.26;101717.25;4955727;29;20530;-47
2022/04/26 07:20:22;;;;;;;11.83;9.63;;;;;;;20.69;34.24;101719.91;4955244;29;20439;-42
2022/04/26 07:22:49;;;;;;;10.00;9.23;;;;;;;20.51;36.30;101723.59;4955186;28;20470;-46
2022/04/26 07:25:18;;;;;;;9.30;8.50;;;;;;;20.06;35.84;101726.09;4955745;29;20444;-49
2022/04/26 07:27:45;;;;;;;8.40;7.80;;;;;;;20.06;34.41;101730.66;4955709;29;20435;-45
2022/04/26 07:30:14;;;;;;;9.47;8.67;;;;;;;19.92;35.72;101731.97;4955804;29;20439;-49
2022/04/26 07:35:28;;;;;;;9.03;8.43;;;;;;;17.98;37.17;101737.50;4955654;29;20435;-46
2022/04/26 07:38:05;;;;;;;8.93;8.23;;;;;;;16.85;39.72;101742.97;4955383;29;20949;-46
2022/04/26 07:40:33;;;;;;;8.73;8.23;;;;;;;16.17;41.10;101744.38;4955123;29;20427;-45
2022/04/26 07:43:01;;;;;;;9.00;8.07;;;;;;;15.27;42.12;101743.03;4955039;29;20473;-44
2022/04/26 07:45:38;;;;;;;8.30;7.70;;;;;;;15.05;43.47;101744.22;4954661;29;20423;-42
2022/04/26 07:48:09;;;;;;;9.03;8.53;;;;;;;14.58;44.40;101750.41;4947341;29;20429;-46
2022/04/26 07:50:37;;;;;;;9.73;8.83;;;;;;;14.04;46.46;101749.38;4954504;28;20436;-48
2022/04/26 07:53:05;;;;;;;9.77;8.70;;;;;;;13.74;47.34;101746.03;4955038;29;20482;-44
2022/04/26 07:55:33;;;;;;;8.47;7.97;;;;;;;13.64;47.03;101750.91;4955066;29;20442;-45
2022/04/26 07:58:01;;;;;;;7.90;7.40;;;;;;;13.32;47.76;101756.78;4954992;29;20450;-43
2022/04/26 08:00:28;;;;;;;10.87;9.97;;;;;;;13.13;48.19;101763.56;4954925;29;20466;-46
2022/04/26 08:02:56;;;;;;;10.03;9.20;;;;;;;13.54;48.73;101755.75;4954480;28;20850;-50
2022/04/26 08:05:26;;;;;;;9.80;9.03;;;;;;;13.63;48.21;101751.91;4955049;29;20495;-45
2022/04/26 08:07:53;;;;;;;10.60;9.80;;;;;;;13.99;48.93;101746.47;4954867;29;20448;-47
2022/04/26 08:10:21;;;;;;;7.90;7.30;;;;;;;14.49;47.33;101759.63;4954192;29;20428;-42
2022/04/26 08:12:49;;;;;;;12.03;10.50;;;;;;;14.81;47.27;101756.28;4954226;28;20494;-43
2022/04/26 08:15:18;;;;;;;11.13;10.07;;;;;;;15.12;46.07;101761.19;4954355;28;20435;-49
2022/04/26 08:17:48;;;;;;;12.13;10.60;;;;;;;15.00;47.86;101759.25;4954601;29;20538;-46
2022/04/26 08:20:16;;;;;;;11.20;10.30;;;;;;;15.39;47.16;101759.41;4954237;29;20450;-50
2022/04/26 08:22:45;;;;;;;11.10;10.10;;;;;;;15.68;46.96;101769.81;4954117;28;20463;-47
2022/04/26 08:27:58;;;;;;;9.37;8.67;;;;;;;15.78;45.73;101770.25;4954666;29;20447;-42
2022/04/26 08:30:25;;;;;;;7.90;7.20;;;;;;;15.69;44.77;101765.25;4954182;29;20439;-45
2022/04/26 08:32:53;;;;;;;8.87;8.23;;;;;;;15.97;43.77;101764.06;4953849;28;20475;-46
2022/04/26 08:35:25;;;;;;;8.23;7.53;;;;;;;15.75;43.59;101769.81;4954255;29;20440;-45
2022/04/26 08:38:14;;;;;;;7.27;6.77;;;;;;;14.98;45.37;101770.22;4954465;29;20447;-45
2022/04/26 08:40:43;;;;;;;9.17;8.47;;;;;;;14.72;47.06;101773.63;4953295;28;20460;-46
2022/04/26 08:43:10;;;;;;;8.97;8.20;;;;;;;15.12;45.09;101777.28;4954124;29;20946;-43
2022/04/26 08:45:39;;;;;;;8.20;7.60;;;;;;;15.23;45.32;101781.28;4953115;29;20447;-44
2022/04/26 08:51:03;;;;;;;8.00;7.30;;;;;;;14.70;47.44;101786.41;4953264;28;20475;-48
2022/04/26 08:53:35;;;;;;;12.00;7.63;;;;;;;14.56;47.50;101781.16;4954071;29;20479;-47
2022/04/26 08:56:06;;;;;;;7.70;6.93;;;;;;;14.46;47.40;101778.81;4953866;29;20547;-47
2022/04/26 08:58:35;;;;;;;7.83;7.30;;;;;;;14.48;47.47;101792.06;4954220;29;20798;-46
2022/04/26 09:01:06;;;;;;;7.67;7.17;;;;;;;14.39;47.31;101781.44;4953186;28;20470;-48
2022/04/26 09:03:35;;;;;;;9.13;8.33;;;;;;;14.27;48.79;101782.19;4954060;29;20431;-48
2022/04/26 09:06:05;;;;;;;7.80;7.20;;;;;;;14.35;49.51;101788.25;4953993;29;20436;-42
2022/04/26 09:08:35;;;;;;;8.67;7.97;;;;;;;14.64;47.71;101783.66;4953760;29;20436;-42
2022/04/26 09:11:03;;;;;;;7.97;7.37;;;;;;;14.67;47.83;101784.09;4953292;28;20471;-48
2022/04/26 09:13:40;;;;;;;8.40;7.40;;;;;;;14.77;46.94;101791.81;4953928;29;20483;-46
2022/04/26 09:16:17;;;;;;;9.63;6.93;;;;;;;14.78;46.72;101786.22;4953907;29;20443;-42
2022/04/26 09:18:56;;;;;;;6.50;6.10;;;;;;;14.48;45.02;101790.22;4953911;28;20494;-42
2022/04/26 09:21:26;;;;;;;8.60;6.50;;;;;;;14.93;45.36;101781.56;4953257;28;20475;-44
2022/04/26 09:23:58;;;;;;;7.40;6.90;;;;;;;15.33;45.12;101792.44;4953775;28;20933;-48
2022/04/26 09:26:33;;;;;;;8.07;7.37;;;;;;;15.48;45.30;101787.78;4953767;28;20432;-48
2022/04/26 09:29:01;;;;;;;7.13;6.63;;;;;;;15.59;43.87;101792.53;4957094;29;20431;-48
2022/04/26 09:31:30;;;;;;;7.87;6.87;;;;;;;15.85;42.65;101787.22;4956827;28;20486;-48
2022/04/26 09:34:04;;;;;;;6.67;6.17;;;;;;;16.21;42.11;101791.38;4957724;29;20475;-48
2022/04/26 09:36:35;;;;;;;6.80;6.20;;;;;;;16.05;38.86;101793.44;4957601;29;20467;-50
2022/04/26 09:39:07;;;;;;;7.47;6.57;;;;;;;16.28;41.10;101792.16;4957555;29;20431;-51
2022/04/26 09:41:36;;;;;;;6.40;5.90;;;;;;;16.49;41.34;101790.06;4956834;28;20470;-48
2022/04/26 09:44:06;;;;;;;6.87;6.20;;;;;;;16.68;41.75;101796.50;4957681;29;20439;-48
2022/04/26 09:46:48;;;;;;;8.83;6.80;;;;;;;16.69;41.63;101794.63;4952893;29;20527;-46
2022/04/26 09:49:18;;;;;;;8.13;7.30;;;;;;;16.76;41.20;101790.88;4955771;29;20428;-47
2022/04/26 09:51:47;;;;;;;7.10;6.60;;;;;;;16.70;40.93;101794.41;4956469;28;20502;-48
2022/04/26 09:54:17;;;;;;;7.80;7.30;;;;;;;16.69;43.22;101794.63;4957296;28;21028;-50
2022/04/26 09:56:46;;;;;;;7.57;6.97;;;;;;;16.59;42.24;101795.06;4957361;28;20833;-50
2022/04/26 09:59:16;;;;;;;7.30;5.93;;;;;;;16.52;42.51;101792.34;4957355;29;20526;-52
2022/04/26 10:01:47;;;;;;;7.10;6.43;;;;;;;16.52;43.40;101795.03;4956608;28;20479;-44
2022/04/26 10:04:23;;;;;;;7.93;7.33;;;;;;;16.66;40.74;101785.13;4957085;29;20470;-45
2022/04/26 10:06:53;;;;;;;7.20;6.10;;;;;;;16.83;42.00;101783.59;4983513;23;20953;-44
2022/04/26 10:09:22;;;;;;;9.90;6.00;;;;;;;17.06;42.27;101794.72;4968405;28;20441;-45
2022/04/26 10:11:50;;;;;;;7.07;6.37;;;;;;;17.38;41.62;101784.78;4966021;28;21038;-44
2022/04/26 10:14:18;;;;;;;7.40;6.67;;;;;;;17.69;39.78;101779.47;4957386;28;20479;-46
2022/04/26 10:16:46;;;;;;;7.03;6.40;;;;;;;17.82;39.34;101783.09;4957357;28;20459;-47
2022/04/26 10:19:14;;;;;;;6.07;5.73;;;;;;;17.90;37.95;101772.88;4957224;28;20446;-48
2022/04/26 10:21:50;;;;;;;7.50;5.73;;;;;;;18.14;37.18;101774.75;4956505;28;20474;-47
2022/04/26 10:24:23;;;;;;;5.63;5.30;;;;;;;18.28;37.32;101783.53;4957241;28;20474;-46
2022/04/26 10:26:52;;;;;;;6.37;5.60;;;;;;;18.63;36.81;101782.00;4957282;28;20470;-45
2022/04/26 10:29:25;;;;;;;6.40;6.00;;;;;;;18.76;36.74;101781.81;4957237;28;20438;-49
2022/04/26 10:32:00;;;;;;;6.37;5.87;;;;;;;18.59;36.59;101780.78;4956433;28;20463;-47
2022/04/26 10:34:31;;;;;;;5.47;5.13;;;;;;;18.95;36.73;101779.94;4957070;28;20558;-45
2022/04/26 10:37:00;;;;;;;5.97;5.60;;;;;;;18.31;33.19;101779.59;4956945;28;20463;-49
2022/04/26 10:39:35;;;;;;;5.60;5.30;;;;;;;18.66;33.19;101778.00;4956560;28;20484;-46
2022/04/26 10:42:07;;;;;;;6.27;5.87;;;;;;;18.93;34.95;101775.81;4956220;28;20471;-45
2022/04/26 10:44:42;;;;;;;6.60;6.10;;;;;;;18.57;34.68;101776.66;4956792;28;20430;-47
2022/04/26 10:47:29;;;;;;;6.53;6.13;;;;;;;18.37;31.54;101770.59;4938109;28;20543;-46
2022/04/26 10:50:00;;;;;;;7.70;6.40;;;;;;;18.65;32.93;101771.78;4937262;29;21029;-45
2022/04/26 10:52:50;;;;;;;6.27;5.80;;;;;;;19.09;33.05;101772.47;4936759;28;20993;-46
2022/04/26 10:55:25;;;;;;;6.40;5.80;;;;;;;18.56;32.43;101783.09;4937478;29;20484;-46
2022/04/26 10:57:55;;;;;;;5.87;5.37;;;;;;;18.22;33.96;101777.16;4937366;29;20444;-49
2022/04/26 11:00:34;;;;;;;6.00;5.60;;;;;;;17.93;33.54;101783.22;4936969;29;20425;-44
2022/04/26 11:03:04;;;;;;;6.70;6.30;;;;;;;18.55;33.50;101778.72;4936964;29;20429;-47
2022/04/26 11:05:34;;;;;;;5.47;5.07;;;;;;;18.06;32.84;101782.31;4936954;29;20945;-46
2022/04/26 11:08:04;;;;;;;6.10;5.60;;;;;;;17.78;34.98;101777.31;4937411;29;20424;-45
2022/04/26 11:13:21;;;;;;;5.60;5.30;;;;;;;17.62;37.36;101780.56;4936950;29;20484;-44
2022/04/26 11:15:49;;;;;;;7.07;6.13;;;;;;;17.81;35.37;101782.28;4936987;29;20488;-45
2022/04/26 11:18:22;;;;;;;6.83;6.23;;;;;;;17.64;35.10;101779.28;4937361;29;20780;-46
2022/04/26 11:20:50;;;;;;;6.97;6.37;;;;;;;17.38;34.91;101784.00;4938576;28;20491;-45
2022/04/26 11:29:23;;;;;;;5.43;5.00;;;;;;;19.04;31.64;101775.88;4955700;29;20435;-46
2022/04/26 11:31:51;;;;;;;5.47;5.07;;;;;;;19.42;30.80;101777.47;4955205;28;20456;-48
2022/04/26 11:34:18;;;;;;;5.77;5.43;;;;;;;19.56;33.42;101778.97;4955552;29;20490;-49
2022/04/26 11:36:46;;;;;;;6.30;6.00;;;;;;;19.61;30.71;101782.63;4955616;29;21005;-48
2022/04/26 11:39:14;;;;;;;6.47;5.97;;;;;;;19.33;31.63;101782.34;4955951;29;20435;-46
2022/04/26 11:41:44;;;;;;;9.13;5.60;;;;;;;19.34;32.12;101784.84;4955132;28;21018;-46
2022/04/26 11:44:13;;;;;;;6.57;6.07;;;;;;;18.76;32.93;101789.09;4955846;29;20782;-47
2022/04/26 11:46:58;;;;;;;7.20;6.70;;;;;;;18.08;35.51;101794.53;4963499;28;20466;-46
2022/04/26 11:49:38;;;;;;;6.43;6.10;;;;;;;17.93;34.25;101787.78;4974481;28;20430;-46
2022/04/26 11:52:07;;;;;;;6.97;6.47;;;;;;;17.77;33.54;101791.03;4961738;28;20475;-45
2022/04/26 11:54:35;;;;;;;6.67;6.20;;;;;;;17.91;34.66;101789.91;4955618;28;20480;-45
2022/04/26 11:57:05;;;;;;;6.17;5.77;;;;;;;17.16;35.64;101799.66;4955582;28;20459;-44
2022/04/26 11:59:33;;;;;;;6.97;6.30;;;;;;;17.24;35.52;101798.56;4955438;28;20427;-45
2022/04/26 12:02:02;;;;;;;5.93;5.63;;;;;;;16.98;36.47;101800.34;4954595;28;21011;-46
2022/04/26 12:04:30;;;;;;;6.40;6.00;;;;;;;17.68;35.13;101791.28;4955317;28;20526;-46
2022/04/26 12:07:00;;;;;;;6.60;6.10;;;;;;;18.03;34.20;101788.97;4955218;28;20471;-48
2022/04/26 12:09:28;;;;;;;5.57;5.20;;;;;;;18.53;33.44;101797.03;4955178;28;20434;-48
2022/04/26 12:12:03;;;;;;;5.60;5.20;;;;;;;17.69;32.69;101792.94;4954492;28;20494;-47
2022/04/26 12:14:32;;;;;;;6.10;5.60;;;;;;;17.89;31.94;101795.50;4955034;28;21163;-46
2022/04/26 12:16:59;;;;;;;5.67;5.27;;;;;;;17.73;33.78;101795.22;4955304;28;20550;-48
2022/04/26 12:19:34;;;;;;;6.60;6.10;;;;;;;17.79;34.49;101797.88;4955008;28;20435;-47
2022/04/26 12:22:04;;;;;;;6.17;5.87;;;;;;;17.58;36.07;101803.59;4954412;28;20470;-49
2022/04/26 12:24:34;;;;;;;6.70;6.10;;;;;;;17.41;36.70;101803.25;4954942;28;20436;-46
2022/04/26 12:27:04;;;;;;;6.17;5.77;;;;;;;16.82;36.01;101795.41;4954944;28;20460;-49
2022/04/26 12:29:42;;;;;;;7.10;6.50;;;;;;;17.17;36.51;101806.72;4954921;28;20439;-48
2022/04/26 12:32:11;;;;;;;6.60;6.07;;;;;;;16.98;37.51;101808.44;4954166;28;20467;-47
2022/04/26 12:34:47;;;;;;;7.20;6.70;;;;;;;16.50;36.11;101813.28;4954545;28;20479;-47
2022/04/26 12:37:20;;;;;;;6.03;5.43;;;;;;;16.54;38.83;101814.56;4954803;28;20828;-47
2022/04/26 12:39:50;;;;;;;7.23;6.73;;;;;;;16.49;39.51;101805.41;4954804;28;20462;-47
2022/04/26 12:42:30;;;;;;;7.33;6.77;;;;;;;16.39;38.21;101810.41;4954033;28;20459;-48
2022/04/26 12:45:02;;;;;;;6.90;6.27;;;;;;;16.50;38.14;101810.59;4954160;28;20428;-46
2022/04/26 12:50:32;;;;;;;6.10;5.60;;;;;;;16.46;36.58;101816.59;4935076;29;20549;-46
2022/04/26 12:53:01;;;;;;;6.50;6.00;;;;;;;16.43;40.86;101812.44;4934997;28;20559;-48
2022/04/26 12:55:31;;;;;;;5.93;5.60;;;;;;;16.13;39.47;101813.91;4935150;29;20891;-49
2022/04/26 12:58:01;;;;;;;8.20;7.43;;;;;;;16.02;38.77;101809.16;4935558;29;20448;-46
2022/04/26 13:00:31;;;;;;;6.30;5.90;;;;;;;15.75;39.38;101813.69;4935337;29;20460;-46
2022/04/26 13:03:02;;;;;;;7.40;6.80;;;;;;;15.69;42.50;101814.50;4934619;28;20839;-47
2022/04/26 13:05:36;;;;;;;7.03;6.33;;;;;;;15.26;39.95;101805.88;4935329;29;20429;-45
2022/04/26 13:08:05;;;;;;;9.97;6.40;;;;;;;15.49;41.03;101809.09;4935270;29;20780;-47
2022/04/26 13:10:33;;;;;;;6.63;5.87;;;;;;;15.47;42.41;101819.19;4935189;29;20440;-45
2022/04/26 13:13:00;;;;;;;8.33;6.60;;;;;;;15.38;40.09;101809.63;4934761;28;20472;-45
2022/04/26 13:15:28;;;;;;;6.03;5.60;;;;;;;15.52;40.56;101815.91;4935027;29;20835;-46
2022/04/26 13:17:59;;;;;;;7.20;6.60;;;;;;;15.50;41.17;101810.72;4935124;29;20443;-47
2022/04/26 13:20:27;;;;;;;7.47;6.63;;;;;;;15.50;42.15;101808.03;4934909;29;20437;-46
2022/04/26 13:22:55;;;;;;;8.00;6.17;;;;;;;15.58;40.42;101816.97;4934211;28;20468;-45
2022/04/26 13:25:23;;;;;;;6.73;6.23;;;;;;;15.24;40.99;101805.25;4934722;29;20445;-52
2022/04/26 13:27:51;;;;;;;6.87;6.27;;;;;;;15.28;42.02;101813.75;4935127;29;20448;-46
2022/04/26 13:30:19;;;;;;;6.50;5.90;;;;;;;15.32;40.47;101810.44;4934777;29;20440;-48
2022/04/26 13:32:47;;;;;;;7.50;6.80;;;;;;;15.35;40.21;101811.91;4934469;28;20465;-48
2022/04/26 13:35:16;;;;;;;6.10;5.50;;;;;;;15.55;38.83;101798.53;4934479;29;20867;-46
2022/04/26 13:37:45;;;;;;;7.10;6.50;;;;;;;15.66;39.68;101809.53;4935076;29;20470;-46
2022/04/26 13:40:13;;;;;;;10.23;6.10;;;;;;;15.92;40.10;101808.72;4934615;29;20443;-50
2022/04/26 13:42:41;;;;;;;10.07;6.33;;;;;;;15.45;42.71;101806.97;4934315;28;20472;-47
2022/04/26 13:45:09;;;;;;;6.50;5.93;;;;;;;15.22;42.10;101814.53;4934814;29;20787;-48
2022/04/26 13:47:38;;;;;;;6.20;5.80;;;;;;;15.11;42.63;101810.59;4934581;29;20465;-46
2022/04/26 13:50:07;;;;;;;6.83;6.13;;;;;;;14.77;46.96;101813.28;4934557;29;20447;-47
2022/04/26 13:52:37;;;;;;;7.23;6.40;;;;;;;14.54;47.48;101816.25;4934401;28;20472;-50
2022/04/26 13:55:06;;;;;;;5.83;5.33;;;;;;;14.49;47.29;101815.16;4934944;29;20443;-50
2022/04/26 13:57:34;;;;;;;7.50;6.60;;;;;;;14.38;46.30;101813.88;4934709;29;20830;-47
2022/04/26 14:00:08;;;;;;;10.10;6.50;;;;;;;14.30;48.10;101817.50;4934678;29;20432;-47
2022/04/26 14:02:36;;;;;;;7.63;6.70;;;;;;;14.50;47.87;101809.63;4934085;28;20551;-46
2022/04/26 14:05:04;;;;;;;7.03;6.43;;;;;;;14.56;45.99;101813.38;4934776;29;20444;-48
2022/04/26 14:07:32;;;;;;;6.50;6.00;;;;;;;14.66;46.93;101814.69;4934433;29;20469;-48
2022/04/26 14:10:01;;;;;;;5.93;5.30;;;;;;;14.48;46.49;101808.16;4934490;29;20447;-46
2022/04/26 14:12:29;;;;;;;6.80;6.17;;;;;;;14.69;47.87;101816.97;4933747;28;20479;-51
2022/04/26 14:23:12;;;;;;;7.10;6.40;;;;;;;14.47;46.49;101812.69;4956775;28;20571;-47
2022/04/26 14:25:41;;;;;;;8.70;6.30;;;;;;;14.25;47.74;101811.88;4957059;28;20478;-47
2022/04/26 14:28:09;;;;;;;6.23;5.73;;;;;;;14.25;46.17;101819.91;4957089;28;20440;-50
2022/04/26 14:30:37;;;;;;;6.90;6.30;;;;;;;14.18;44.55;101819.06;4956319;28;20439;-48
2022/04/26 14:33:09;;;;;;;7.17;5.83;;;;;;;14.57;44.97;101815.03;4956885;28;20432;-46
2022/04/26 14:35:37;;;;;;;7.27;6.50;;;;;;;14.48;46.23;101819.72;4956510;28;20582;-49
2022/04/26 14:38:05;;;;;;;7.50;6.90;;;;;;;14.78;44.72;101813.09;4957076;28;20440;-44
2022/04/26 14:40:32;;;;;;;7.13;6.00;;;;;;;14.92;44.95;101812.16;4956760;28;20431;-47
2022/04/26 14:43:07;;;;;;;7.00;6.37;;;;;;;15.12;44.15;101811.38;4956612;28;20539;-45
2022/04/26 14:45:42;;;;;;;8.00;6.30;;;;;;;15.30;43.15;101809.81;4959669;28;21004;-48
2022/04/26 14:48:11;;;;;;;6.23;5.80;;;;;;;15.31;44.61;101824.09;4967804;28;21000;-46
2022/04/26 14:50:40;;;;;;;9.23;5.97;;;;;;;15.51;43.55;101803.50;4975564;28;20435;-46
2022/04/26 14:53:08;;;;;;;6.70;6.23;;;;;;;15.82;42.60;101811.84;4975964;28;20435;-48
2022/04/26 14:55:55;;;;;;;7.83;6.27;;;;;;;15.86;42.55;101813.06;4975873;28;20481;-48
2022/04/26 14:58:24;;;;;;;6.67;6.27;;;;;;;16.12;42.05;101806.91;4975740;28;20944;-45
2022/04/26 15:00:52;;;;;;;6.43;6.03;;;;;;;16.20;41.07;101811.22;4975231;28;20446;-50
2022/04/26 15:03:20;;;;;;;6.87;6.37;;;;;;;16.19;42.13;101804.22;4975937;28;20443;-48
2022/04/26 15:05:47;;;;;;;6.17;5.77;;;;;;;16.29;40.06;101804.59;4975471;28;20983;-47
2022/04/26 15:11:00;;;;;;;6.77;6.10;;;;;;;17.14;40.35;101807.94;4975211;28;20459;-48
2022/04/26 15:19:00;;;;;;;7.50;7.00;;;;;;;16.51;42.28;101814.13;4975594;28;20441;-47
2022/04/26 15:21:27;;;;;;;6.60;6.10;;;;;;;16.46;41.69;101820.13;4975258;28;20469;-45
2022/04/26 15:23:55;;;;;;;6.83;6.43;;;;;;;16.78;41.08;101818.44;4976042;28;20634;-46
2022/04/26 15:26:24;;;;;;;6.70;6.30;;;;;;;16.40;40.53;101828.19;4975492;28;20816;-51
2022/04/26 15:28:54;;;;;;;6.10;5.70;;;;;;;16.17;40.49;101819.72;4975405;28;20435;-45
2022/04/26 15:31:22;;;;;;;7.13;5.80;;;;;;;15.87;41.19;101830.88;4974289;28;20995;-45
2022/04/26 15:33:51;;;;;;;6.40;5.83;;;;;;;15.69;44.47;101829.81;4975438;28;20461;-48
2022/04/26 15:36:20;;;;;;;6.40;5.77;;;;;;;15.81;42.64;101825.47;4975434;28;20479;-45
2022/04/26 15:38:49;;;;;;;7.20;5.47;;;;;;;15.88;44.70;101829.03;4975604;28;20948;-47
2022/04/26 15:41:17;;;;;;;6.30;5.80;;;;;;;15.81;44.18;101830.88;4974526;28;20809;-46
2022/04/26 15:43:44;;;;;;;5.37;5.07;;;;;;;15.35;42.41;101831.53;4975382;28;20435;-45
2022/04/26 15:46:33;;;;;;;5.93;5.50;;;;;;;15.34;43.31;101827.22;4970489;28;20448;-46
2022/04/26 15:49:02;;;;;;;6.00;5.53;;;;;;;15.08;43.89;101834.34;4971866;28;20875;-48